Alpine, New York
Current Conditions -  °F | °C
As of 9:53 PM on Sunday 21 Dec 2014 (Local Time) from KELM Reporting Station
Overcast Overcast  
Wind Chill: -1°   Ceiling: 2500
Heat Index: -1°   Visibility: 10mi
Dew Point: -6°   Wind: 0mph
Humidity: 67%   Direction: NA
Pressure: 30.29"   Gusts: NA
Location:  42.31°N, 76.72°W
Report Text: KELM 220253Z AUTO 00000KT 10SM OVC025 M01/M06 A3029 RMK AO2 SLP269 T10061061 58003
Loading
Personal Weather Stations






























Interactive Weather Map New forecast layout! Learn more

10-Day Weather Forecast

Advertisements
Track Severe Weather on mobile